sensor_id;sensor_type;location;lat;lon;timestamp;temperature;humidity
6118;DHT22;3089;48.202;11.510;2023-05-07T00:01:00;14.50;99.90
6118;DHT22;3089;48.202;11.510;2023-05-07T00:03:29;14.50;99.90
6118;DHT22;3089;48.202;11.510;2023-05-07T00:05:57;14.50;99.90
6118;DHT22;3089;48.202;11.510;2023-05-07T00:08:25;14.50;99.90
6118;DHT22;3089;48.202;11.510;2023-05-07T00:10:53;14.50;99.90
6118;DHT22;3089;48.202;11.510;2023-05-07T00:13:21;14.50;99.90
6118;DHT22;3089;48.202;11.510;2023-05-07T00:15:49;14.50;99.90
6118;DHT22;3089;48.202;11.510;2023-05-07T00:18:18;14.50;99.90
6118;DHT22;3089;48.202;11.510;2023-05-07T00:20:47;14.40;99.90
6118;DHT22;3089;48.202;11.510;2023-05-07T00:23:15;14.40;99.90
6118;DHT22;3089;48.202;11.510;2023-05-07T00:25:43;14.30;99.90
6118;DHT22;3089;48.202;11.510;2023-05-07T00:28:11;14.20;99.90
6118;DHT22;3089;48.202;11.510;2023-05-07T00:30:38;14.20;99.90
6118;DHT22;3089;48.202;11.510;2023-05-07T00:33:06;14.20;99.90
6118;DHT22;3089;48.202;11.510;2023-05-07T00:35:35;14.20;99.90
6118;DHT22;3089;48.202;11.510;2023-05-07T00:38:03;14.20;99.90
6118;DHT22;3089;48.202;11.510;2023-05-07T00:40:31;14.20;99.90
6118;DHT22;3089;48.202;11.510;2023-05-07T00:42:59;14.20;99.90
6118;DHT22;3089;48.202;11.510;2023-05-07T00:45:27;14.20;99.90
6118;DHT22;3089;48.202;11.510;2023-05-07T00:47:56;14.10;99.90
6118;DHT22;3089;48.202;11.510;2023-05-07T00:50:25;14.10;99.90
6118;DHT22;3089;48.202;11.510;2023-05-07T00:52:55;14.20;99.90
6118;DHT22;3089;48.202;11.510;2023-05-07T00:55:23;14.10;99.90
6118;DHT22;3089;48.202;11.510;2023-05-07T00:57:51;14.20;99.90
6118;DHT22;3089;48.202;11.510;2023-05-07T01:00:19;14.20;99.90
6118;DHT22;3089;48.202;11.510;2023-05-07T01:02:47;14.10;99.90
6118;DHT22;3089;48.202;11.510;2023-05-07T01:05:17;14.00;99.90
6118;DHT22;3089;48.202;11.510;2023-05-07T01:07:47;14.00;99.90
6118;DHT22;3089;48.202;11.510;2023-05-07T01:10:19;14.00;99.90
6118;DHT22;3089;48.202;11.510;2023-05-07T01:12:48;14.00;99.90
6118;DHT22;3089;48.202;11.510;2023-05-07T01:15:17;13.90;99.90
6118;DHT22;3089;48.202;11.510;2023-05-07T01:17:45;13.90;99.90
6118;DHT22;3089;48.202;11.510;2023-05-07T01:20:13;13.90;99.90
6118;DHT22;3089;48.202;11.510;2023-05-07T01:22:43;13.90;99.90
6118;DHT22;3089;48.202;11.510;2023-05-07T01:25:12;13.90;99.90
6118;DHT22;3089;48.202;11.510;2023-05-07T01:27:42;13.90;99.90
6118;DHT22;3089;48.202;11.510;2023-05-07T01:30:11;13.80;99.90
6118;DHT22;3089;48.202;11.510;2023-05-07T01:32:43;13.80;99.90
6118;DHT22;3089;48.202;11.510;2023-05-07T01:35:18;13.80;99.90
6118;DHT22;3089;48.202;11.510;2023-05-07T01:37:48;13.80;99.90
6118;DHT22;3089;48.202;11.510;2023-05-07T01:40:17;13.80;99.90
6118;DHT22;3089;48.202;11.510;2023-05-07T01:42:46;13.80;99.90
6118;DHT22;3089;48.202;11.510;2023-05-07T01:45:14;13.70;99.90
6118;DHT22;3089;48.202;11.510;2023-05-07T01:47:43;13.70;99.90
6118;DHT22;3089;48.202;11.510;2023-05-07T01:50:12;13.70;99.90
6118;DHT22;3089;48.202;11.510;2023-05-07T01:52:40;13.70;99.90
6118;DHT22;3089;48.202;11.510;2023-05-07T01:55:10;13.70;99.90
6118;DHT22;3089;48.202;11.510;2023-05-07T01:57:37;13.70;99.90
6118;DHT22;3089;48.202;11.510;2023-05-07T02:00:07;13.70;99.90
6118;DHT22;3089;48.202;11.510;2023-05-07T02:02:36;13.60;99.90
6118;DHT22;3089;48.202;11.510;2023-05-07T02:05:05;13.60;99.90
6118;DHT22;3089;48.202;11.510;2023-05-07T02:07:33;13.60;99.90
6118;DHT22;3089;48.202;11.510;2023-05-07T02:10:01;13.60;99.90
6118;DHT22;3089;48.202;11.510;2023-05-07T02:12:30;13.60;99.90
6118;DHT22;3089;48.202;11.510;2023-05-07T02:14:58;13.60;99.90
6118;DHT22;3089;48.202;11.510;2023-05-07T02:17:26;13.50;99.90
6118;DHT22;3089;48.202;11.510;2023-05-07T02:19:54;13.50;99.90
6118;DHT22;3089;48.202;11.510;2023-05-07T02:22:21;13.50;99.90
6118;DHT22;3089;48.202;11.510;2023-05-07T02:24:49;13.50;99.90
6118;DHT22;3089;48.202;11.510;2023-05-07T02:27:20;13.50;99.90
6118;DHT22;3089;48.202;11.510;2023-05-07T02:29:49;13.40;99.90
6118;DHT22;3089;48.202;11.510;2023-05-07T02:32:17;13.40;99.90
6118;DHT22;3089;48.202;11.510;2023-05-07T02:34:45;13.40;99.90
6118;DHT22;3089;48.202;11.510;2023-05-07T02:37:12;13.40;99.90
6118;DHT22;3089;48.202;11.510;2023-05-07T02:39:40;13.40;99.90
6118;DHT22;3089;48.202;11.510;2023-05-07T02:42:08;13.40;99.90
6118;DHT22;3089;48.202;11.510;2023-05-07T02:44:36;13.40;99.90
6118;DHT22;3089;48.202;11.510;2023-05-07T02:47:05;13.40;99.90
6118;DHT22;3089;48.202;11.510;2023-05-07T02:49:34;13.30;99.90
6118;DHT22;3089;48.202;11.510;2023-05-07T02:52:02;13.30;99.90
6118;DHT22;3089;48.202;11.510;2023-05-07T02:54:30;13.30;99.90
6118;DHT22;3089;48.202;11.510;2023-05-07T02:56:58;13.30;99.90
6118;DHT22;3089;48.202;11.510;2023-05-07T02:59:27;13.30;99.90
6118;DHT22;3089;48.202;11.510;2023-05-07T03:01:55;13.30;99.90
6118;DHT22;3089;48.202;11.510;2023-05-07T03:04:24;13.20;99.90
6118;DHT22;3089;48.202;11.510;2023-05-07T03:06:52;13.20;99.90
6118;DHT22;3089;48.202;11.510;2023-05-07T03:09:20;13.10;99.90
6118;DHT22;3089;48.202;11.510;2023-05-07T03:11:48;13.20;99.90
6118;DHT22;3089;48.202;11.510;2023-05-07T03:14:16;13.20;99.90
6118;DHT22;3089;48.202;11.510;2023-05-07T03:16:43;13.10;99.90
6118;DHT22;3089;48.202;11.510;2023-05-07T03:19:11;13.20;99.90
6118;DHT22;3089;48.202;11.510;2023-05-07T03:21:40;13.10;99.90
6118;DHT22;3089;48.202;11.510;2023-05-07T03:24:08;13.10;99.90
6118;DHT22;3089;48.202;11.510;2023-05-07T03:26:36;13.10;99.90
6118;DHT22;3089;48.202;11.510;2023-05-07T03:29:04;13.00;99.90
6118;DHT22;3089;48.202;11.510;2023-05-07T03:31:32;13.00;99.90
6118;DHT22;3089;48.202;11.510;2023-05-07T03:34:00;13.00;99.90
6118;DHT22;3089;48.202;11.510;2023-05-07T03:36:27;13.00;99.90
6118;DHT22;3089;48.202;11.510;2023-05-07T03:38:57;13.00;99.90
6118;DHT22;3089;48.202;11.510;2023-05-07T03:41:25;13.00;99.90
6118;DHT22;3089;48.202;11.510;2023-05-07T03:43:53;13.00;99.90
6118;DHT22;3089;48.202;11.510;2023-05-07T03:46:21;13.00;99.90
6118;DHT22;3089;48.202;11.510;2023-05-07T03:48:48;12.90;99.90
6118;DHT22;3089;48.202;11.510;2023-05-07T03:51:16;12.90;99.90
6118;DHT22;3089;48.202;11.510;2023-05-07T03:53:44;12.90;99.90
6118;DHT22;3089;48.202;11.510;2023-05-07T03:56:13;12.90;99.90
6118;DHT22;3089;48.202;11.510;2023-05-07T03:58:44;12.90;99.90
6118;DHT22;3089;48.202;11.510;2023-05-07T04:01:11;12.80;99.90
6118;DHT22;3089;48.202;11.510;2023-05-07T04:03:40;12.80;99.90
6118;DHT22;3089;48.202;11.510;2023-05-07T04:06:08;12.80;99.90
6118;DHT22;3089;48.202;11.510;2023-05-07T04:08:37;12.80;99.90
6118;DHT22;3089;48.202;11.510;2023-05-07T04:11:04;12.80;99.90
6118;DHT22;3089;48.202;11.510;2023-05-07T04:13:33;12.80;99.90
6118;DHT22;3089;48.202;11.510;2023-05-07T04:16:03;12.90;99.90
6118;DHT22;3089;48.202;11.510;2023-05-07T04:18:31;12.80;99.90
6118;DHT22;3089;48.202;11.510;2023-05-07T04:20:59;12.80;99.90
6118;DHT22;3089;48.202;11.510;2023-05-07T04:23:27;12.90;99.90
6118;DHT22;3089;48.202;11.510;2023-05-07T04:25:55;12.80;99.90
6118;DHT22;3089;48.202;11.510;2023-05-07T04:28:23;12.90;99.90
6118;DHT22;3089;48.202;11.510;2023-05-07T04:30:53;12.90;99.90
6118;DHT22;3089;48.202;11.510;2023-05-07T04:33:21;12.90;99.90
6118;DHT22;3089;48.202;11.510;2023-05-07T04:35:49;12.90;99.90
6118;DHT22;3089;48.202;11.510;2023-05-07T04:38:17;12.90;99.90
6118;DHT22;3089;48.202;11.510;2023-05-07T04:40:45;13.00;99.90
6118;DHT22;3089;48.202;11.510;2023-05-07T04:43:13;12.90;99.90
6118;DHT22;3089;48.202;11.510;2023-05-07T04:45:41;13.10;99.90
6118;DHT22;3089;48.202;11.510;2023-05-07T04:48:10;13.80;99.90
6118;DHT22;3089;48.202;11.510;2023-05-07T04:50:38;14.80;99.90
6118;DHT22;3089;48.202;11.510;2023-05-07T04:53:06;15.50;99.90
6118;DHT22;3089;48.202;11.510;2023-05-07T04:55:34;15.70;99.90
6118;DHT22;3089;48.202;11.510;2023-05-07T04:58:01;15.00;99.90
6118;DHT22;3089;48.202;11.510;2023-05-07T05:00:31;15.10;99.90
6118;DHT22;3089;48.202;11.510;2023-05-07T05:02:59;15.80;99.90
6118;DHT22;3089;48.202;11.510;2023-05-07T05:05:29;15.90;99.90
6118;DHT22;3089;48.202;11.510;2023-05-07T05:07:56;15.90;99.90
6118;DHT22;3089;48.202;11.510;2023-05-07T05:10:24;16.20;99.90
6118;DHT22;3089;48.202;11.510;2023-05-07T05:12:52;16.50;99.90
6118;DHT22;3089;48.202;11.510;2023-05-07T05:15:20;16.60;99.90
6118;DHT22;3089;48.202;11.510;2023-05-07T05:17:48;17.10;99.90
6118;DHT22;3089;48.202;11.510;2023-05-07T05:20:16;17.30;99.90
6118;DHT22;3089;48.202;11.510;2023-05-07T05:22:45;17.40;99.90
6118;DHT22;3089;48.202;11.510;2023-05-07T05:25:13;17.80;99.90
6118;DHT22;3089;48.202;11.510;2023-05-07T05:27:41;18.10;99.90
6118;DHT22;3089;48.202;11.510;2023-05-07T05:30:10;18.70;99.90
6118;DHT22;3089;48.202;11.510;2023-05-07T05:32:38;18.80;99.90
6118;DHT22;3089;48.202;11.510;2023-05-07T05:35:07;18.40;99.90
6118;DHT22;3089;48.202;11.510;2023-05-07T05:37:35;18.40;99.90
6118;DHT22;3089;48.202;11.510;2023-05-07T05:40:05;18.90;99.90
6118;DHT22;3089;48.202;11.510;2023-05-07T05:42:34;19.60;99.90
6118;DHT22;3089;48.202;11.510;2023-05-07T05:45:01;20.20;99.90
6118;DHT22;3089;48.202;11.510;2023-05-07T05:47:29;20.00;99.90
6118;DHT22;3089;48.202;11.510;2023-05-07T05:49:57;20.10;99.90
6118;DHT22;3089;48.202;11.510;2023-05-07T05:52:25;20.20;99.90
6118;DHT22;3089;48.202;11.510;2023-05-07T05:54:53;20.00;99.90
6118;DHT22;3089;48.202;11.510;2023-05-07T05:57:22;20.80;99.90
6118;DHT22;3089;48.202;11.510;2023-05-07T05:59:52;21.00;99.90
6118;DHT22;3089;48.202;11.510;2023-05-07T06:02:21;20.50;99.90
6118;DHT22;3089;48.202;11.510;2023-05-07T06:04:49;21.70;99.90
6118;DHT22;3089;48.202;11.510;2023-05-07T06:07:17;21.80;99.90
6118;DHT22;3089;48.202;11.510;2023-05-07T06:09:45;21.50;99.90
6118;DHT22;3089;48.202;11.510;2023-05-07T06:12:12;22.10;99.90
6118;DHT22;3089;48.202;11.510;2023-05-07T06:14:42;22.00;99.90
6118;DHT22;3089;48.202;11.510;2023-05-07T06:17:10;22.90;99.90
6118;DHT22;3089;48.202;11.510;2023-05-07T06:19:38;23.30;99.90
6118;DHT22;3089;48.202;11.510;2023-05-07T06:22:06;23.30;99.90
6118;DHT22;3089;48.202;11.510;2023-05-07T06:24:34;22.70;99.90
6118;DHT22;3089;48.202;11.510;2023-05-07T06:27:02;22.40;99.90
6118;DHT22;3089;48.202;11.510;2023-05-07T06:29:30;22.70;99.90
6118;DHT22;3089;48.202;11.510;2023-05-07T06:32:07;22.80;99.90
6118;DHT22;3089;48.202;11.510;2023-05-07T06:34:36;23.10;99.90
6118;DHT22;3089;48.202;11.510;2023-05-07T06:37:04;22.00;99.90
6118;DHT22;3089;48.202;11.510;2023-05-07T06:39:32;22.20;99.90
6118;DHT22;3089;48.202;11.510;2023-05-07T06:42:00;22.50;99.90
6118;DHT22;3089;48.202;11.510;2023-05-07T06:44:28;23.30;99.90
6118;DHT22;3089;48.202;11.510;2023-05-07T06:46:56;23.90;99.90
6118;DHT22;3089;48.202;11.510;2023-05-07T06:49:25;24.00;99.90
6118;DHT22;3089;48.202;11.510;2023-05-07T06:51:53;23.60;99.90
6118;DHT22;3089;48.202;11.510;2023-05-07T06:54:22;24.80;99.90
6118;DHT22;3089;48.202;11.510;2023-05-07T06:56:50;23.70;99.90
6118;DHT22;3089;48.202;11.510;2023-05-07T06:59:18;24.50;99.90
6118;DHT22;3089;48.202;11.510;2023-05-07T07:01:45;24.00;99.90
6118;DHT22;3089;48.202;11.510;2023-05-07T07:04:13;23.60;99.90
6118;DHT22;3089;48.202;11.510;2023-05-07T07:06:43;23.70;99.90
6118;DHT22;3089;48.202;11.510;2023-05-07T07:09:10;24.60;99.90
6118;DHT22;3089;48.202;11.510;2023-05-07T07:11:38;24.70;99.90
6118;DHT22;3089;48.202;11.510;2023-05-07T07:14:06;23.70;99.90
6118;DHT22;3089;48.202;11.510;2023-05-07T07:16:34;23.60;99.90
6118;DHT22;3089;48.202;11.510;2023-05-07T07:19:02;22.70;99.90
6118;DHT22;3089;48.202;11.510;2023-05-07T07:21:30;23.00;99.90
6118;DHT22;3089;48.202;11.510;2023-05-07T07:23:59;23.10;99.90
6118;DHT22;3089;48.202;11.510;2023-05-07T07:26:27;22.80;99.90
6118;DHT22;3089;48.202;11.510;2023-05-07T07:28:55;23.40;99.90
6118;DHT22;3089;48.202;11.510;2023-05-07T07:31:23;23.20;99.90
6118;DHT22;3089;48.202;11.510;2023-05-07T07:33:51;23.30;99.90
6118;DHT22;3089;48.202;11.510;2023-05-07T07:36:19;24.00;99.90
6118;DHT22;3089;48.202;11.510;2023-05-07T07:38:49;23.80;99.90
6118;DHT22;3089;48.202;11.510;2023-05-07T07:41:18;23.30;99.90
6118;DHT22;3089;48.202;11.510;2023-05-07T07:43:46;22.80;99.90
6118;DHT22;3089;48.202;11.510;2023-05-07T07:46:15;22.90;99.90
6118;DHT22;3089;48.202;11.510;2023-05-07T07:48:43;22.60;99.90
6118;DHT22;3089;48.202;11.510;2023-05-07T07:51:11;22.00;99.90
6118;DHT22;3089;48.202;11.510;2023-05-07T07:53:39;22.70;99.90
6118;DHT22;3089;48.202;11.510;2023-05-07T07:56:07;23.30;99.90
6118;DHT22;3089;48.202;11.510;2023-05-07T07:58:36;22.50;99.90
6118;DHT22;3089;48.202;11.510;2023-05-07T08:01:05;22.30;99.90
6118;DHT22;3089;48.202;11.510;2023-05-07T08:03:33;22.90;99.90
6118;DHT22;3089;48.202;11.510;2023-05-07T08:06:02;22.20;99.90
6118;DHT22;3089;48.202;11.510;2023-05-07T08:08:30;21.80;99.90
6118;DHT22;3089;48.202;11.510;2023-05-07T08:10:58;21.90;99.90
6118;DHT22;3089;48.202;11.510;2023-05-07T08:13:26;21.90;99.90
6118;DHT22;3089;48.202;11.510;2023-05-07T08:16:05;22.00;99.90
6118;DHT22;3089;48.202;11.510;2023-05-07T08:18:39;22.30;99.90
6118;DHT22;3089;48.202;11.510;2023-05-07T08:21:07;22.00;99.90
6118;DHT22;3089;48.202;11.510;2023-05-07T08:23:35;22.70;99.90
6118;DHT22;3089;48.202;11.510;2023-05-07T08:26:03;22.80;99.90
6118;DHT22;3089;48.202;11.510;2023-05-07T08:28:30;21.80;99.90
6118;DHT22;3089;48.202;11.510;2023-05-07T08:30:58;22.40;99.90
6118;DHT22;3089;48.202;11.510;2023-05-07T08:33:29;21.40;99.90
6118;DHT22;3089;48.202;11.510;2023-05-07T08:35:57;21.10;99.90
6118;DHT22;3089;48.202;11.510;2023-05-07T08:38:25;21.60;99.90
6118;DHT22;3089;48.202;11.510;2023-05-07T08:40:53;22.20;99.90
6118;DHT22;3089;48.202;11.510;2023-05-07T08:43:21;21.80;99.90
6118;DHT22;3089;48.202;11.510;2023-05-07T08:45:53;22.40;99.90
6118;DHT22;3089;48.202;11.510;2023-05-07T08:48:24;22.00;99.90
6118;DHT22;3089;48.202;11.510;2023-05-07T08:50:54;22.10;99.90
6118;DHT22;3089;48.202;11.510;2023-05-07T08:53:21;22.10;99.90
6118;DHT22;3089;48.202;11.510;2023-05-07T08:55:49;22.20;99.90
6118;DHT22;3089;48.202;11.510;2023-05-07T08:58:17;22.00;99.90
6118;DHT22;3089;48.202;11.510;2023-05-07T09:00:46;22.80;99.90
6118;DHT22;3089;48.202;11.510;2023-05-07T09:03:14;22.60;99.90
6118;DHT22;3089;48.202;11.510;2023-05-07T09:05:42;22.50;99.90
6118;DHT22;3089;48.202;11.510;2023-05-07T09:08:15;23.20;99.90
6118;DHT22;3089;48.202;11.510;2023-05-07T09:10:44;23.40;99.90
6118;DHT22;3089;48.202;11.510;2023-05-07T09:13:12;23.10;99.90
6118;DHT22;3089;48.202;11.510;2023-05-07T09:15:41;22.70;99.90
6118;DHT22;3089;48.202;11.510;2023-05-07T09:18:09;22.60;99.90
6118;DHT22;3089;48.202;11.510;2023-05-07T09:20:37;22.60;99.90
6118;DHT22;3089;48.202;11.510;2023-05-07T09:23:05;23.50;99.90
6118;DHT22;3089;48.202;11.510;2023-05-07T09:25:35;23.20;99.90
6118;DHT22;3089;48.202;11.510;2023-05-07T09:28:04;23.60;99.90
6118;DHT22;3089;48.202;11.510;2023-05-07T09:30:34;23.30;99.90
6118;DHT22;3089;48.202;11.510;2023-05-07T09:33:03;22.90;99.90
6118;DHT22;3089;48.202;11.510;2023-05-07T09:35:31;22.60;99.90
6118;DHT22;3089;48.202;11.510;2023-05-07T09:38:00;21.90;99.90
6118;DHT22;3089;48.202;11.510;2023-05-07T09:40:30;22.50;99.90
6118;DHT22;3089;48.202;11.510;2023-05-07T09:43:10;23.20;99.90
6118;DHT22;3089;48.202;11.510;2023-05-07T09:45:38;22.90;99.90
6118;DHT22;3089;48.202;11.510;2023-05-07T09:48:06;23.20;99.90
6118;DHT22;3089;48.202;11.510;2023-05-07T09:50:37;23.30;99.90
6118;DHT22;3089;48.202;11.510;2023-05-07T09:53:07;23.40;99.90
6118;DHT22;3089;48.202;11.510;2023-05-07T09:55:37;23.30;99.90
6118;DHT22;3089;48.202;11.510;2023-05-07T09:58:06;23.00;99.90
6118;DHT22;3089;48.202;11.510;2023-05-07T10:00:36;23.10;99.90
6118;DHT22;3089;48.202;11.510;2023-05-07T10:03:06;23.00;99.90
6118;DHT22;3089;48.202;11.510;2023-05-07T10:05:35;23.40;99.90
6118;DHT22;3089;48.202;11.510;2023-05-07T10:08:03;23.70;99.90
6118;DHT22;3089;48.202;11.510;2023-05-07T10:10:33;23.20;99.90
6118;DHT22;3089;48.202;11.510;2023-05-07T10:13:02;22.60;99.90
6118;DHT22;3089;48.202;11.510;2023-05-07T10:15:32;23.10;99.90
6118;DHT22;3089;48.202;11.510;2023-05-07T10:18:03;23.50;99.90
6118;DHT22;3089;48.202;11.510;2023-05-07T10:20:32;23.00;99.90
6118;DHT22;3089;48.202;11.510;2023-05-07T10:23:04;22.90;99.90
6118;DHT22;3089;48.202;11.510;2023-05-07T10:25:32;22.70;99.90
6118;DHT22;3089;48.202;11.510;2023-05-07T10:28:04;22.40;99.90
6118;DHT22;3089;48.202;11.510;2023-05-07T10:30:41;22.40;99.90
6118;DHT22;3089;48.202;11.510;2023-05-07T10:33:16;22.70;99.90
6118;DHT22;3089;48.202;11.510;2023-05-07T10:35:46;23.20;99.90
6118;DHT22;3089;48.202;11.510;2023-05-07T10:38:15;23.10;99.90
6118;DHT22;3089;48.202;11.510;2023-05-07T10:40:43;23.40;99.90
6118;DHT22;3089;48.202;11.510;2023-05-07T10:43:13;23.10;99.90
6118;DHT22;3089;48.202;11.510;2023-05-07T10:45:41;23.20;99.90
6118;DHT22;3089;48.202;11.510;2023-05-07T10:48:11;22.30;99.90
6118;DHT22;3089;48.202;11.510;2023-05-07T10:51:21;22.90;99.90
6118;DHT22;3089;48.202;11.510;2023-05-07T10:54:18;23.30;99.90
6118;DHT22;3089;48.202;11.510;2023-05-07T10:56:46;23.10;99.90
6118;DHT22;3089;48.202;11.510;2023-05-07T10:59:37;22.60;99.90
6118;DHT22;3089;48.202;11.510;2023-05-07T11:02:11;22.60;99.90
6118;DHT22;3089;48.202;11.510;2023-05-07T11:04:40;22.70;99.90
6118;DHT22;3089;48.202;11.510;2023-05-07T11:07:25;22.80;99.90
6118;DHT22;3089;48.202;11.510;2023-05-07T11:10:01;22.70;99.90
6118;DHT22;3089;48.202;11.510;2023-05-07T11:12:50;22.60;99.90
6118;DHT22;3089;48.202;11.510;2023-05-07T11:15:38;22.40;99.90
6118;DHT22;3089;48.202;11.510;2023-05-07T11:18:09;22.70;99.90
6118;DHT22;3089;48.202;11.510;2023-05-07T11:20:57;22.80;99.90
6118;DHT22;3089;48.202;11.510;2023-05-07T11:23:58;22.60;99.90
6118;DHT22;3089;48.202;11.510;2023-05-07T11:26:28;22.40;99.90
6118;DHT22;3089;48.202;11.510;2023-05-07T11:28:57;22.60;99.90
6118;DHT22;3089;48.202;11.510;2023-05-07T11:31:27;22.40;99.90
6118;DHT22;3089;48.202;11.510;2023-05-07T11:33:57;22.20;99.90
6118;DHT22;3089;48.202;11.510;2023-05-07T11:36:31;22.60;99.90
6118;DHT22;3089;48.202;11.510;2023-05-07T11:39:00;22.90;99.90
6118;DHT22;3089;48.202;11.510;2023-05-07T11:41:35;23.30;99.90
6118;DHT22;3089;48.202;11.510;2023-05-07T11:44:04;22.80;99.90
6118;DHT22;3089;48.202;11.510;2023-05-07T11:46:32;22.30;99.90
6118;DHT22;3089;48.202;11.510;2023-05-07T11:49:01;22.70;99.90
6118;DHT22;3089;48.202;11.510;2023-05-07T11:51:30;22.60;99.90
6118;DHT22;3089;48.202;11.510;2023-05-07T11:53:59;22.70;99.90
6118;DHT22;3089;48.202;11.510;2023-05-07T11:56:27;22.70;99.90
6118;DHT22;3089;48.202;11.510;2023-05-07T11:58:55;22.60;99.90
6118;DHT22;3089;48.202;11.510;2023-05-07T12:01:23;22.70;99.90
6118;DHT22;3089;48.202;11.510;2023-05-07T12:03:50;23.10;99.90
6118;DHT22;3089;48.202;11.510;2023-05-07T12:06:18;22.70;99.90
6118;DHT22;3089;48.202;11.510;2023-05-07T12:08:47;22.20;99.90
6118;DHT22;3089;48.202;11.510;2023-05-07T12:11:22;22.20;99.90
6118;DHT22;3089;48.202;11.510;2023-05-07T12:13:50;22.90;99.90
6118;DHT22;3089;48.202;11.510;2023-05-07T12:16:19;22.60;99.90
6118;DHT22;3089;48.202;11.510;2023-05-07T12:18:47;22.40;99.90
6118;DHT22;3089;48.202;11.510;2023-05-07T12:23:54;22.80;99.90
6118;DHT22;3089;48.202;11.510;2023-05-07T12:26:24;22.70;99.90
6118;DHT22;3089;48.202;11.510;2023-05-07T12:28:52;22.60;99.90
6118;DHT22;3089;48.202;11.510;2023-05-07T12:31:20;22.60;99.90
6118;DHT22;3089;48.202;11.510;2023-05-07T12:33:48;22.70;99.90
6118;DHT22;3089;48.202;11.510;2023-05-07T12:36:15;22.90;99.90
6118;DHT22;3089;48.202;11.510;2023-05-07T12:38:43;23.10;99.90
6118;DHT22;3089;48.202;11.510;2023-05-07T12:41:11;22.80;99.90
6118;DHT22;3089;48.202;11.510;2023-05-07T12:43:44;22.70;99.90
6118;DHT22;3089;48.202;11.510;2023-05-07T12:46:12;22.40;99.90
6118;DHT22;3089;48.202;11.510;2023-05-07T12:48:44;22.60;99.90
6118;DHT22;3089;48.202;11.510;2023-05-07T12:51:12;22.40;99.90
6118;DHT22;3089;48.202;11.510;2023-05-07T12:53:42;22.80;99.90
6118;DHT22;3089;48.202;11.510;2023-05-07T12:56:10;22.80;99.90
6118;DHT22;3089;48.202;11.510;2023-05-07T12:58:38;22.50;99.90
6118;DHT22;3089;48.202;11.510;2023-05-07T13:01:08;22.20;99.90
6118;DHT22;3089;48.202;11.510;2023-05-07T13:03:38;22.60;99.90
6118;DHT22;3089;48.202;11.510;2023-05-07T13:06:07;22.70;99.90
6118;DHT22;3089;48.202;11.510;2023-05-07T13:08:38;22.60;99.90
6118;DHT22;3089;48.202;11.510;2023-05-07T13:11:07;22.60;99.90
6118;DHT22;3089;48.202;11.510;2023-05-07T13:13:37;22.30;99.90
6118;DHT22;3089;48.202;11.510;2023-05-07T13:16:08;22.40;99.90
6118;DHT22;3089;48.202;11.510;2023-05-07T13:18:37;22.60;99.90
6118;DHT22;3089;48.202;11.510;2023-05-07T13:21:07;22.60;99.90
6118;DHT22;3089;48.202;11.510;2023-05-07T13:23:36;22.80;99.90
6118;DHT22;3089;48.202;11.510;2023-05-07T13:26:05;22.30;99.90
6118;DHT22;3089;48.202;11.510;2023-05-07T13:28:51;22.00;99.90
6118;DHT22;3089;48.202;11.510;2023-05-07T13:31:20;22.50;99.90
6118;DHT22;3089;48.202;11.510;2023-05-07T13:33:48;22.60;99.90
6118;DHT22;3089;48.202;11.510;2023-05-07T13:36:16;22.80;99.90
6118;DHT22;3089;48.202;11.510;2023-05-07T13:38:44;22.70;99.90
6118;DHT22;3089;48.202;11.510;2023-05-07T13:41:13;22.90;99.90
6118;DHT22;3089;48.202;11.510;2023-05-07T13:43:41;22.90;99.90
6118;DHT22;3089;48.202;11.510;2023-05-07T13:46:09;22.50;99.90
6118;DHT22;3089;48.202;11.510;2023-05-07T13:48:38;22.50;99.90
6118;DHT22;3089;48.202;11.510;2023-05-07T13:51:06;22.60;99.90
6118;DHT22;3089;48.202;11.510;2023-05-07T13:53:34;22.40;99.90
6118;DHT22;3089;48.202;11.510;2023-05-07T13:56:02;22.60;99.90
6118;DHT22;3089;48.202;11.510;2023-05-07T13:58:31;22.30;99.90
6118;DHT22;3089;48.202;11.510;2023-05-07T14:00:59;22.20;99.90
6118;DHT22;3089;48.202;11.510;2023-05-07T14:03:27;22.20;99.90
6118;DHT22;3089;48.202;11.510;2023-05-07T14:05:56;22.20;99.90
6118;DHT22;3089;48.202;11.510;2023-05-07T14:08:26;22.30;99.90
6118;DHT22;3089;48.202;11.510;2023-05-07T14:10:57;22.50;99.90
6118;DHT22;3089;48.202;11.510;2023-05-07T14:13:26;22.30;99.90
6118;DHT22;3089;48.202;11.510;2023-05-07T14:15:54;22.30;99.90
6118;DHT22;3089;48.202;11.510;2023-05-07T14:18:22;22.20;99.90
6118;DHT22;3089;48.202;11.510;2023-05-07T14:20:51;21.80;99.90
6118;DHT22;3089;48.202;11.510;2023-05-07T14:23:20;21.50;99.90
6118;DHT22;3089;48.202;11.510;2023-05-07T14:25:53;21.60;99.90
6118;DHT22;3089;48.202;11.510;2023-05-07T14:28:21;21.60;99.90
6118;DHT22;3089;48.202;11.510;2023-05-07T14:30:49;21.50;99.90
6118;DHT22;3089;48.202;11.510;2023-05-07T14:33:17;21.50;99.90
6118;DHT22;3089;48.202;11.510;2023-05-07T14:35:45;21.90;99.90
6118;DHT22;3089;48.202;11.510;2023-05-07T14:38:15;21.80;99.90
6118;DHT22;3089;48.202;11.510;2023-05-07T14:40:44;21.70;99.90
6118;DHT22;3089;48.202;11.510;2023-05-07T14:43:12;21.70;99.90
6118;DHT22;3089;48.202;11.510;2023-05-07T14:45:40;21.70;99.90
6118;DHT22;3089;48.202;11.510;2023-05-07T14:48:08;21.60;99.90
6118;DHT22;3089;48.202;11.510;2023-05-07T14:50:41;21.50;99.90
6118;DHT22;3089;48.202;11.510;2023-05-07T14:53:09;21.60;99.90
6118;DHT22;3089;48.202;11.510;2023-05-07T14:55:37;21.70;99.90
6118;DHT22;3089;48.202;11.510;2023-05-07T14:58:06;21.70;99.90
6118;DHT22;3089;48.202;11.510;2023-05-07T15:00:34;21.60;99.90
6118;DHT22;3089;48.202;11.510;2023-05-07T15:03:05;21.70;99.90
6118;DHT22;3089;48.202;11.510;2023-05-07T15:05:35;21.40;99.90
6118;DHT22;3089;48.202;11.510;2023-05-07T15:08:04;21.50;99.90
6118;DHT22;3089;48.202;11.510;2023-05-07T15:10:35;21.20;99.90
6118;DHT22;3089;48.202;11.510;2023-05-07T15:13:09;21.30;99.90
6118;DHT22;3089;48.202;11.510;2023-05-07T15:15:42;21.10;99.90
6118;DHT22;3089;48.202;11.510;2023-05-07T15:18:10;21.20;99.90
6118;DHT22;3089;48.202;11.510;2023-05-07T15:20:38;21.30;99.90
6118;DHT22;3089;48.202;11.510;2023-05-07T15:23:06;21.40;99.90
6118;DHT22;3089;48.202;11.510;2023-05-07T15:25:36;21.10;99.90
6118;DHT22;3089;48.202;11.510;2023-05-07T15:28:04;20.90;99.90
6118;DHT22;3089;48.202;11.510;2023-05-07T15:30:33;21.00;99.90
6118;DHT22;3089;48.202;11.510;2023-05-07T15:33:01;21.10;99.90
6118;DHT22;3089;48.202;11.510;2023-05-07T15:35:29;20.80;99.90
6118;DHT22;3089;48.202;11.510;2023-05-07T15:37:57;20.80;99.90
6118;DHT22;3089;48.202;11.510;2023-05-07T15:40:25;20.90;99.90
6118;DHT22;3089;48.202;11.510;2023-05-07T15:42:55;20.60;99.90
6118;DHT22;3089;48.202;11.510;2023-05-07T15:45:23;20.80;99.90
6118;DHT22;3089;48.202;11.510;2023-05-07T15:47:52;20.80;99.90
6118;DHT22;3089;48.202;11.510;2023-05-07T15:50:20;20.80;99.90
6118;DHT22;3089;48.202;11.510;2023-05-07T15:52:48;20.50;99.90
6118;DHT22;3089;48.202;11.510;2023-05-07T15:55:16;20.70;99.90
6118;DHT22;3089;48.202;11.510;2023-05-07T15:57:44;20.30;99.90
6118;DHT22;3089;48.202;11.510;2023-05-07T16:00:13;20.30;99.90